Time;durP1;ratioP1;P1;durP2;ratioP2;P2;SDS_P1;SDS_P2;PMS_P1;PMS_P2;Temp;Humidity;BMP_temperature;BMP_pressure;BME280_temperature;BME280_humidity;BME280_pressure;Samples;Min_cycle;Max_cycle;Signal;HPM_P1;HPM_P2
2021/03/24 00:04:25;;;;;;;23.60;10.40;;;;;;;;;;10567395;28;20305;-73
2021/03/24 00:09:27;;;;;;;21.43;10.47;;;;;;;;;;10567691;27;20205;-73
2021/03/24 00:14:28;;;;;;;20.30;9.60;;;;;;;;;;10562011;27;20246;-73
2021/03/24 00:19:31;;;;;;;18.80;9.47;;;;;;;;;;10575117;27;20623;-73
2021/03/24 00:24:39;;;;;;;21.40;9.63;;;;;;;;;;10557543;27;20215;-72
2021/03/24 00:29:41;;;;;;;20.97;11.00;;;;;;;;;;10568133;27;20248;-72
2021/03/24 00:34:44;;;;;;;26.37;12.90;;;;;;;;;;10575978;27;20203;-72
2021/03/24 00:39:46;;;;;;;22.67;11.00;;;;;;;;;;10572847;27;20207;-72
2021/03/24 00:44:47;;;;;;;21.43;11.07;;;;;;;;;;10574513;27;20217;-72
2021/03/24 00:49:50;;;;;;;20.47;10.10;;;;;;;;;;10570125;27;20210;-72
2021/03/24 00:55:05;;;;;;;24.03;12.03;;;;;;;;;;10596462;27;20286;-72
2021/03/24 01:00:08;;;;;;;21.20;10.57;;;;;;;;;;10568748;27;20272;-72
2021/03/24 01:05:12;;;;;;;21.97;10.43;;;;;;;;;;10554894;27;20268;-71
2021/03/24 01:10:15;;;;;;;19.30;9.80;;;;;;;;;;10581142;27;20187;-72
2021/03/24 01:15:17;;;;;;;19.30;9.83;;;;;;;;;;10565668;27;20674;-72
2021/03/24 01:20:20;;;;;;;19.17;9.57;;;;;;;;;;10571973;27;20256;-72
2021/03/24 01:25:28;;;;;;;20.60;10.70;;;;;;;;;;10564011;27;20277;-72
2021/03/24 01:30:30;;;;;;;14.90;6.87;;;;;;;;;;10580850;27;20221;-72
2021/03/24 01:35:33;;;;;;;20.73;10.03;;;;;;;;;;10567414;27;20239;-73
2021/03/24 01:40:35;;;;;;;20.23;9.70;;;;;;;;;;10546325;27;20199;-72
2021/03/24 01:46:07;;;;;;;19.97;9.27;;;;;;;;;;10602024;27;20220;-72
2021/03/24 01:51:10;;;;;;;20.53;9.77;;;;;;;;;;10621383;27;20191;-73
2021/03/24 01:56:12;;;;;;;21.50;10.87;;;;;;;;;;10577969;27;20221;-71
2021/03/24 02:01:15;;;;;;;20.70;10.10;;;;;;;;;;10576364;27;20644;-72
2021/03/24 02:06:20;;;;;;;21.77;10.13;;;;;;;;;;10547279;28;20663;-72
2021/03/24 02:11:25;;;;;;;23.80;10.87;;;;;;;;;;10573545;27;20704;-71
2021/03/24 02:16:29;;;;;;;19.20;10.07;;;;;;;;;;10576840;27;20233;-72
2021/03/24 02:21:34;;;;;;;20.93;10.47;;;;;;;;;;10572090;27;20643;-71
2021/03/24 02:26:39;;;;;;;24.40;10.47;;;;;;;;;;10581861;27;20279;-72
2021/03/24 02:31:42;;;;;;;24.17;10.87;;;;;;;;;;10575361;27;20210;-72
2021/03/24 02:36:44;;;;;;;19.97;9.23;;;;;;;;;;10588246;27;20654;-71
2021/03/24 02:41:46;;;;;;;21.33;10.20;;;;;;;;;;10563335;28;20668;-71
2021/03/24 02:46:48;;;;;;;23.00;10.70;;;;;;;;;;10578346;27;20365;-72
2021/03/24 02:51:50;;;;;;;23.87;10.57;;;;;;;;;;10562407;27;20211;-72
2021/03/24 02:56:51;;;;;;;19.63;10.10;;;;;;;;;;10562798;27;20643;-72
2021/03/24 03:01:57;;;;;;;18.40;8.67;;;;;;;;;;10576175;27;20264;-72
2021/03/24 03:07:03;;;;;;;23.03;10.43;;;;;;;;;;10601946;28;20192;-72
2021/03/24 03:12:08;;;;;;;18.50;9.57;;;;;;;;;;10565426;27;20212;-72
2021/03/24 03:17:13;;;;;;;18.87;9.23;;;;;;;;;;10570999;28;20187;-73
2021/03/24 03:22:16;;;;;;;21.20;9.83;;;;;;;;;;10575449;28;20223;-72
2021/03/24 03:27:20;;;;;;;20.77;9.77;;;;;;;;;;10579917;28;20216;-73
2021/03/24 03:32:24;;;;;;;18.17;9.20;;;;;;;;;;10554410;28;20207;-73
2021/03/24 03:37:26;;;;;;;20.77;10.40;;;;;;;;;;10580628;28;20198;-73
2021/03/24 03:42:28;;;;;;;18.60;9.23;;;;;;;;;;10573003;28;20213;-73
2021/03/24 03:47:30;;;;;;;19.53;9.60;;;;;;;;;;10580705;27;20561;-72
2021/03/24 03:52:44;;;;;;;20.00;10.07;;;;;;;;;;10575242;27;20272;-72
2021/03/24 03:57:50;;;;;;;18.87;9.37;;;;;;;;;;10580931;27;20547;-73
2021/03/24 04:02:55;;;;;;;16.93;9.47;;;;;;;;;;10588148;27;20221;-71
2021/03/24 04:07:59;;;;;;;18.63;9.37;;;;;;;;;;10580874;27;20203;-72
2021/03/24 04:13:02;;;;;;;16.77;9.30;;;;;;;;;;10579100;27;20217;-72
2021/03/24 04:18:07;;;;;;;16.23;9.30;;;;;;;;;;10581016;27;20665;-72
2021/03/24 04:23:12;;;;;;;18.90;9.07;;;;;;;;;;10565768;27;20222;-71
2021/03/24 04:28:15;;;;;;;18.10;9.00;;;;;;;;;;10584114;27;20554;-71
2021/03/24 04:33:18;;;;;;;16.67;8.77;;;;;;;;;;10576701;27;20310;-72
2021/03/24 04:38:23;;;;;;;17.93;8.37;;;;;;;;;;10573172;27;20208;-72
2021/03/24 04:43:26;;;;;;;17.57;9.13;;;;;;;;;;10582325;27;20302;-72
2021/03/24 04:48:31;;;;;;;18.33;9.73;;;;;;;;;;10579519;27;20219;-72
2021/03/24 04:53:35;;;;;;;20.73;10.00;;;;;;;;;;10549292;27;20239;-72
2021/03/24 04:58:38;;;;;;;16.80;8.77;;;;;;;;;;10583628;27;20201;-72
2021/03/24 05:03:41;;;;;;;13.53;6.60;;;;;;;;;;10587725;27;20804;-72
2021/03/24 05:08:44;;;;;;;20.33;8.80;;;;;;;;;;10571842;27;20859;-73
2021/03/24 05:13:51;;;;;;;18.30;9.27;;;;;;;;;;10571727;27;20740;-73
2021/03/24 05:18:54;;;;;;;21.03;9.57;;;;;;;;;;10573011;27;20606;-73
2021/03/24 05:23:58;;;;;;;19.83;9.73;;;;;;;;;;10553118;27;20719;-72
2021/03/24 05:29:01;;;;;;;18.30;9.20;;;;;;;;;;10580039;27;20191;-71
2021/03/24 05:34:05;;;;;;;18.57;9.50;;;;;;;;;;10585867;27;20298;-71
2021/03/24 05:39:12;;;;;;;18.83;9.40;;;;;;;;;;10571746;27;20263;-71
2021/03/24 05:44:27;;;;;;;18.50;8.07;;;;;;;;;;10572032;27;20306;-71
2021/03/24 05:49:33;;;;;;;16.20;8.47;;;;;;;;;;10580886;27;20651;-71
2021/03/24 05:54:42;;;;;;;21.27;9.90;;;;;;;;;;10572138;27;20688;-72
2021/03/24 05:59:48;;;;;;;17.70;9.17;;;;;;;;;;10569718;27;20219;-73
2021/03/24 06:04:52;;;;;;;14.73;8.17;;;;;;;;;;10570124;27;23366;-73
2021/03/24 06:10:08;;;;;;;17.47;9.03;;;;;;;;;;10565267;27;20758;-74
2021/03/24 06:15:31;;;;;;;16.70;8.93;;;;;;;;;;10567088;27;20717;-73
2021/03/24 06:20:39;;;;;;;18.40;9.03;;;;;;;;;;10563490;27;20703;-71
2021/03/24 06:25:45;;;;;;;18.23;9.37;;;;;;;;;;10573327;27;20663;-72
2021/03/24 06:30:52;;;;;;;14.03;7.13;;;;;;;;;;10572249;27;20191;-72
2021/03/24 06:35:59;;;;;;;14.73;7.70;;;;;;;;;;10574555;27;20286;-72
2021/03/24 06:41:06;;;;;;;15.60;7.90;;;;;;;;;;10569205;27;20298;-72
2021/03/24 06:46:16;;;;;;;14.37;7.30;;;;;;;;;;10558678;27;20503;-74
2021/03/24 06:51:46;;;;;;;15.33;7.97;;;;;;;;;;10553675;27;21027;-72
2021/03/24 06:57:12;;;;;;;14.57;8.03;;;;;;;;;;10578708;27;20208;-73
2021/03/24 07:02:26;;;;;;;13.20;7.97;;;;;;;;;;10561963;27;20239;-72
2021/03/24 07:07:35;;;;;;;19.50;9.23;;;;;;;;;;10564300;27;20219;-73
2021/03/24 07:12:42;;;;;;;13.63;8.70;;;;;;;;;;10551717;28;20317;-73
2021/03/24 07:23:35;;;;;;;12.83;8.40;;;;;;;;;;10571053;28;20231;-72
2021/03/24 07:28:45;;;;;;;13.23;8.37;;;;;;;;;;10556869;28;20186;-72
2021/03/24 07:33:52;;;;;;;15.63;9.80;;;;;;;;;;10559610;28;20238;-71
2021/03/24 07:39:02;;;;;;;17.42;10.13;;;;;;;;;;10564433;28;20694;-73
2021/03/24 07:44:21;;;;;;;14.25;9.90;;;;;;;;;;10562777;28;20226;-72
2021/03/24 07:49:40;;;;;;;15.05;9.55;;;;;;;;;;10551761;28;20956;-73
2021/03/24 07:54:48;;;;;;;14.73;9.77;;;;;;;;;;10563319;28;20214;-72
2021/03/24 07:59:54;;;;;;;14.85;10.02;;;;;;;;;;10549856;28;20676;-72
2021/03/24 08:05:11;;;;;;;14.85;10.18;;;;;;;;;;10568401;28;20287;-73
2021/03/24 08:10:26;;;;;;;13.93;9.57;;;;;;;;;;10560177;28;20666;-72
2021/03/24 08:15:54;;;;;;;20.42;10.30;;;;;;;;;;10545938;28;20222;-73
2021/03/24 08:21:01;;;;;;;15.82;11.18;;;;;;;;;;10543488;28;20826;-72
2021/03/24 08:26:19;;;;;;;16.65;10.50;;;;;;;;;;10548453;28;20228;-73
2021/03/24 08:31:44;;;;;;;14.18;10.57;;;;;;;;;;10580979;27;20233;-72
2021/03/24 08:36:53;;;;;;;14.63;10.00;;;;;;;;;;10540006;27;20203;-72
2021/03/24 08:42:16;;;;;;;15.20;10.43;;;;;;;;;;10568225;27;20230;-72
2021/03/24 08:47:35;;;;;;;14.13;10.20;;;;;;;;;;10582582;27;20194;-73
2021/03/24 08:52:51;;;;;;;16.13;9.88;;;;;;;;;;10575318;27;20210;-72
2021/03/24 08:58:03;;;;;;;13.52;9.20;;;;;;;;;;10584319;27;20229;-73
2021/03/24 09:03:23;;;;;;;17.58;10.93;;;;;;;;;;10586973;27;20222;-71
2021/03/24 09:08:28;;;;;;;14.20;9.68;;;;;;;;;;10579388;27;20193;-73
2021/03/24 09:13:32;;;;;;;26.48;11.32;;;;;;;;;;10570497;27;20222;-73
2021/03/24 09:18:36;;;;;;;17.05;10.57;;;;;;;;;;10558681;27;20207;-73
2021/03/24 09:23:57;;;;;;;18.55;10.98;;;;;;;;;;10581492;27;20286;-73
2021/03/24 09:29:14;;;;;;;16.08;10.32;;;;;;;;;;10565817;27;20220;-73
2021/03/24 09:34:24;;;;;;;13.05;10.00;;;;;;;;;;10560741;27;20224;-73
2021/03/24 09:39:28;;;;;;;12.90;9.18;;;;;;;;;;10568000;28;20622;-73
2021/03/24 09:44:36;;;;;;;14.15;9.25;;;;;;;;;;10547591;27;20219;-72
2021/03/24 09:49:39;;;;;;;14.02;9.55;;;;;;;;;;10553574;27;20223;-72
2021/03/24 09:54:55;;;;;;;15.55;9.05;;;;;;;;;;10547694;28;20211;-72
2021/03/24 10:00:00;;;;;;;13.02;9.15;;;;;;;;;;10549110;27;20661;-72
2021/03/24 10:05:50;;;;;;;14.60;9.60;;;;;;;;;;10565700;27;20686;-73
2021/03/24 10:11:46;;;;;;;13.32;8.77;;;;;;;;;;10558632;27;20682;-74
2021/03/24 10:16:49;;;;;;;10.98;8.25;;;;;;;;;;10567782;27;20577;-74
2021/03/24 10:22:38;;;;;;;11.13;8.48;;;;;;;;;;10563797;27;20399;-74
2021/03/24 10:27:42;;;;;;;13.50;10.77;;;;;;;;;;10547691;27;20255;-74
2021/03/24 10:33:32;;;;;;;13.30;8.38;;;;;;;;;;10566550;27;20226;-74
2021/03/24 10:39:22;;;;;;;11.77;8.55;;;;;;;;;;10545742;27;20260;-72
2021/03/24 10:45:20;;;;;;;10.38;7.90;;;;;;;;;;10572617;27;20253;-74
2021/03/24 10:51:08;;;;;;;13.63;8.50;;;;;;;;;;10559603;27;20647;-74
2021/03/24 10:57:08;;;;;;;11.80;8.40;;;;;;;;;;10577027;27;20297;-74
2021/03/24 11:02:47;;;;;;;11.50;8.15;;;;;;;;;;10577970;27;20219;-73
2021/03/24 11:08:20;;;;;;;11.75;7.95;;;;;;;;;;10577233;27;20206;-73
2021/03/24 11:13:53;;;;;;;11.45;8.05;;;;;;;;;;10565996;27;20230;-74
2021/03/24 11:19:24;;;;;;;11.93;7.57;;;;;;;;;;10572790;28;20687;-72
2021/03/24 11:24:52;;;;;;;11.02;8.10;;;;;;;;;;10569384;28;20226;-73
2021/03/24 11:30:24;;;;;;;10.30;7.30;;;;;;;;;;10569982;28;20329;-73
2021/03/24 11:35:58;;;;;;;12.70;8.05;;;;;;;;;;10585599;28;20215;-72
2021/03/24 11:41:26;;;;;;;10.20;7.57;;;;;;;;;;10570376;28;20222;-73
2021/03/24 11:46:58;;;;;;;10.82;8.13;;;;;;;;;;10570263;27;20210;-73
2021/03/24 11:52:15;;;;;;;11.40;7.63;;;;;;;;;;10563668;28;20246;-73
2021/03/24 11:57:29;;;;;;;10.88;7.90;;;;;;;;;;10563016;28;20210;-74
2021/03/24 12:02:39;;;;;;;9.73;6.95;;;;;;;;;;10564466;28;20313;-74
2021/03/24 12:07:47;;;;;;;9.82;6.63;;;;;;;;;;10568183;27;20191;-73
2021/03/24 12:12:59;;;;;;;9.65;6.43;;;;;;;;;;10561846;27;20362;-73
2021/03/24 12:18:06;;;;;;;8.60;5.90;;;;;;;;;;10570346;28;20219;-73
2021/03/24 12:23:08;;;;;;;10.38;6.45;;;;;;;;;;10571952;28;20231;-73
2021/03/24 12:28:11;;;;;;;9.70;5.93;;;;;;;;;;10569082;28;20742;-75
2021/03/24 12:33:22;;;;;;;10.32;6.60;;;;;;;;;;10570257;28;20218;-73
2021/03/24 12:38:24;;;;;;;9.95;5.53;;;;;;;;;;10568860;28;20526;-72
2021/03/24 12:43:26;;;;;;;9.90;6.05;;;;;;;;;;10570574;28;20229;-73
2021/03/24 12:48:34;;;;;;;9.45;5.68;;;;;;;;;;10564907;28;20711;-74
2021/03/24 12:53:39;;;;;;;10.63;5.50;;;;;;;;;;10566795;28;20218;-73
2021/03/24 12:58:44;;;;;;;9.98;5.80;;;;;;;;;;10555090;28;20206;-72
2021/03/24 13:04:14;;;;;;;10.38;5.78;;;;;;;;;;10568316;28;20298;-73
2021/03/24 13:09:19;;;;;;;8.93;5.20;;;;;;;;;;10560666;28;20215;-73
2021/03/24 13:14:26;;;;;;;7.82;4.78;;;;;;;;;;10576145;27;20226;-73
2021/03/24 13:19:31;;;;;;;8.80;4.80;;;;;;;;;;10559231;28;20264;-73
2021/03/24 13:24:57;;;;;;;8.63;5.20;;;;;;;;;;10607180;27;20233;-73
2021/03/24 13:30:02;;;;;;;8.88;5.30;;;;;;;;;;10592152;27;20756;-73
2021/03/24 13:35:11;;;;;;;9.90;5.82;;;;;;;;;;10577893;27;20274;-73
2021/03/24 13:40:18;;;;;;;11.07;5.78;;;;;;;;;;10544876;27;20252;-73
2021/03/24 13:45:24;;;;;;;9.70;4.93;;;;;;;;;;10549695;27;20246;-73
2021/03/24 13:50:29;;;;;;;10.82;6.07;;;;;;;;;;10567548;27;20207;-73
2021/03/24 13:55:43;;;;;;;9.38;5.18;;;;;;;;;;10548072;27;20219;-73
2021/03/24 14:00:49;;;;;;;8.45;4.80;;;;;;;;;;10552851;27;20272;-73
2021/03/24 14:05:54;;;;;;;8.77;5.00;;;;;;;;;;10565560;27;20996;-73
2021/03/24 14:11:08;;;;;;;8.20;4.55;;;;;;;;;;10566681;27;20280;-73
2021/03/24 14:16:16;;;;;;;8.75;4.53;;;;;;;;;;10587860;27;20195;-73
2021/03/24 14:21:23;;;;;;;9.80;4.78;;;;;;;;;;10574094;27;20238;-74
2021/03/24 14:26:28;;;;;;;8.48;4.53;;;;;;;;;;10566022;27;20236;-73
2021/03/24 14:31:35;;;;;;;8.20;4.45;;;;;;;;;;10539129;27;20340;-74
2021/03/24 14:36:42;;;;;;;9.40;4.45;;;;;;;;;;10564838;27;20847;-73
2021/03/24 14:41:46;;;;;;;8.15;4.25;;;;;;;;;;10559286;27;20233;-74
2021/03/24 14:46:57;;;;;;;9.55;4.60;;;;;;;;;;10571124;27;20546;-72
2021/03/24 14:52:04;;;;;;;9.95;4.63;;;;;;;;;;10576923;27;20210;-73
2021/03/24 14:57:09;;;;;;;10.43;4.60;;;;;;;;;;10547001;27;20528;-74
2021/03/24 15:02:28;;;;;;;9.68;4.85;;;;;;;;;;10564366;27;20738;-73
2021/03/24 15:07:33;;;;;;;12.27;5.80;;;;;;;;;;10576444;27;20206;-73
2021/03/24 15:12:36;;;;;;;9.40;4.83;;;;;;;;;;10565054;27;20779;-73
2021/03/24 15:17:39;;;;;;;9.80;4.63;;;;;;;;;;10563162;27;20222;-73
2021/03/24 15:22:48;;;;;;;8.73;4.37;;;;;;;;;;10556868;28;20214;-73
2021/03/24 15:27:53;;;;;;;8.90;4.53;;;;;;;;;;10574662;28;20194;-72
2021/03/24 15:32:57;;;;;;;9.73;4.30;;;;;;;;;;10560571;28;20218;-74
2021/03/24 15:38:20;;;;;;;9.60;4.23;;;;;;;;;;10561608;28;20195;-73
2021/03/24 15:43:45;;;;;;;9.53;4.40;;;;;;;;;;10573717;27;20317;-73
2021/03/24 15:48:58;;;;;;;9.43;4.47;;;;;;;;;;10554829;27;20624;-73
2021/03/24 15:54:03;;;;;;;10.17;4.50;;;;;;;;;;10579181;27;20217;-73
2021/03/24 15:59:08;;;;;;;9.37;4.20;;;;;;;;;;10578498;27;20203;-73
2021/03/24 16:04:19;;;;;;;7.80;4.23;;;;;;;;;;10575563;27;20531;-72
2021/03/24 16:09:25;;;;;;;9.47;4.63;;;;;;;;;;10578170;27;20872;-73
2021/03/24 16:14:33;;;;;;;9.03;4.57;;;;;;;;;;10572053;27;20283;-73
2021/03/24 16:19:47;;;;;;;10.43;4.77;;;;;;;;;;10559383;27;20260;-73
2021/03/24 16:24:55;;;;;;;9.13;4.03;;;;;;;;;;10586401;27;20215;-72
2021/03/24 16:30:00;;;;;;;9.00;4.40;;;;;;;;;;10560235;27;20242;-72
2021/03/24 16:35:20;;;;;;;9.10;4.60;;;;;;;;;;10570848;27;20217;-72
2021/03/24 16:40:41;;;;;;;8.80;4.47;;;;;;;;;;10573717;27;20600;-72
2021/03/24 16:46:03;;;;;;;9.83;4.37;;;;;;;;;;10549935;28;20226;-73
2021/03/24 16:51:35;;;;;;;12.27;4.83;;;;;;;;;;10540996;27;20246;-73
2021/03/24 16:56:45;;;;;;;10.50;4.50;;;;;;;;;;10582012;27;20198;-73
2021/03/24 17:01:49;;;;;;;9.33;4.80;;;;;;;;;;10581436;27;20272;-73
2021/03/24 17:06:53;;;;;;;10.23;4.20;;;;;;;;;;10562852;27;20647;-74
2021/03/24 17:12:03;;;;;;;9.73;4.23;;;;;;;;;;10569877;27;20236;-73
2021/03/24 17:17:08;;;;;;;9.00;4.90;;;;;;;;;;10551596;27;20577;-74
2021/03/24 17:22:15;;;;;;;9.73;4.30;;;;;;;;;;10571596;27;20224;-72
2021/03/24 17:27:26;;;;;;;11.43;4.77;;;;;;;;;;10548773;28;20619;-72
2021/03/24 17:32:31;;;;;;;11.07;4.60;;;;;;;;;;10563065;27;20222;-72
2021/03/24 17:38:01;;;;;;;10.70;4.17;;;;;;;;;;10552357;28;20248;-72
2021/03/24 17:43:19;;;;;;;11.53;4.47;;;;;;;;;;10587290;27;20283;-73
2021/03/24 17:48:27;;;;;;;10.00;4.50;;;;;;;;;;10575491;27;20213;-73
2021/03/24 17:53:34;;;;;;;11.47;4.70;;;;;;;;;;10563236;27;20226;-73
2021/03/24 17:58:46;;;;;;;10.70;4.43;;;;;;;;;;10584331;27;20627;-73
2021/03/24 18:03:50;;;;;;;10.20;4.73;;;;;;;;;;10573397;27;20309;-73
2021/03/24 18:08:55;;;;;;;11.20;5.20;;;;;;;;;;10562533;27;20221;-72
2021/03/24 18:14:00;;;;;;;12.40;4.90;;;;;;;;;;10572687;27;20310;-73
2021/03/24 18:19:37;;;;;;;12.77;5.57;;;;;;;;;;10574077;27;20222;-72
2021/03/24 18:24:40;;;;;;;12.47;4.97;;;;;;;;;;10579419;27;20275;-73
2021/03/24 18:29:46;;;;;;;10.93;4.70;;;;;;;;;;10561846;27;20211;-73
2021/03/24 18:34:51;;;;;;;12.60;4.80;;;;;;;;;;10546137;27;20306;-73
2021/03/24 18:40:04;;;;;;;12.20;4.47;;;;;;;;;;10545607;28;20248;-72
2021/03/24 18:45:08;;;;;;;10.47;4.50;;;;;;;;;;10574112;27;20237;-74
2021/03/24 18:50:23;;;;;;;11.67;5.40;;;;;;;;;;10583187;27;20215;-73
2021/03/24 18:55:32;;;;;;;11.43;5.77;;;;;;;;;;10575647;27;20716;-73
2021/03/24 19:00:34;;;;;;;11.67;5.70;;;;;;;;;;10598390;27;20241;-73
2021/03/24 19:05:38;;;;;;;14.10;5.67;;;;;;;;;;10556452;27;20214;-73
2021/03/24 19:10:55;;;;;;;12.20;5.73;;;;;;;;;;10572588;27;20210;-72
2021/03/24 19:15:56;;;;;;;16.53;6.30;;;;;;;;;;10569668;27;20245;-73
2021/03/24 19:21:03;;;;;;;15.60;6.27;;;;;;;;;;10574687;27;20321;-73
2021/03/24 19:26:16;;;;;;;14.67;6.23;;;;;;;;;;10564760;28;20679;-73
2021/03/24 19:31:21;;;;;;;14.53;6.27;;;;;;;;;;10571349;28;20516;-74
2021/03/24 19:36:36;;;;;;;13.13;6.07;;;;;;;;;;10543734;28;20243;-73
2021/03/24 19:41:39;;;;;;;16.03;7.03;;;;;;;;;;10566605;28;20211;-73
2021/03/24 19:46:48;;;;;;;17.87;7.10;;;;;;;;;;10566133;28;20527;-73
2021/03/24 19:52:04;;;;;;;12.60;6.83;;;;;;;;;;10568590;28;20663;-74
2021/03/24 19:57:17;;;;;;;15.00;7.60;;;;;;;;;;10568549;28;20186;-74
2021/03/24 20:02:23;;;;;;;14.93;6.83;;;;;;;;;;10545571;28;20303;-72
2021/03/24 20:07:31;;;;;;;15.03;7.07;;;;;;;;;;10564766;28;20245;-73
2021/03/24 20:12:39;;;;;;;14.53;7.00;;;;;;;;;;10552721;28;20223;-73
2021/03/24 20:17:42;;;;;;;13.80;7.13;;;;;;;;;;10576077;28;20187;-74
2021/03/24 20:22:45;;;;;;;19.87;9.13;;;;;;;;;;10571350;28;20273;-72
2021/03/24 20:27:47;;;;;;;14.87;7.23;;;;;;;;;;10579589;27;20713;-73
2021/03/24 20:32:51;;;;;;;18.03;8.07;;;;;;;;;;10553643;27;20219;-73
2021/03/24 20:37:58;;;;;;;14.70;7.10;;;;;;;;;;10554706;27;20278;-74
2021/03/24 20:43:03;;;;;;;16.00;7.20;;;;;;;;;;10554605;27;20229;-74
2021/03/24 20:48:05;;;;;;;13.00;6.70;;;;;;;;;;10573429;27;20199;-73
2021/03/24 20:53:08;;;;;;;14.53;7.23;;;;;;;;;;10576519;27;20219;-72
2021/03/24 20:58:13;;;;;;;15.57;6.97;;;;;;;;;;10573667;27;20191;-72
2021/03/24 21:03:18;;;;;;;16.20;7.63;;;;;;;;;;10573399;27;20622;-74
2021/03/24 21:08:23;;;;;;;12.33;6.47;;;;;;;;;;10571542;28;20207;-72
2021/03/24 21:13:24;;;;;;;14.13;6.77;;;;;;;;;;10555317;27;20218;-73
2021/03/24 21:18:28;;;;;;;13.50;6.43;;;;;;;;;;10573171;27;20765;-74
2021/03/24 21:23:30;;;;;;;14.27;6.80;;;;;;;;;;10574729;27;20226;-74
2021/03/24 21:28:32;;;;;;;13.47;5.73;;;;;;;;;;10575904;27;20191;-74
2021/03/24 21:33:34;;;;;;;12.37;5.50;;;;;;;;;;10553112;28;20299;-74
2021/03/24 21:38:38;;;;;;;13.77;5.97;;;;;;;;;;10573185;27;20277;-74
2021/03/24 21:43:41;;;;;;;11.57;5.47;;;;;;;;;;10556539;27;20325;-74
2021/03/24 21:48:43;;;;;;;16.13;8.37;;;;;;;;;;10573089;27;20191;-75
2021/03/24 21:53:47;;;;;;;9.53;4.50;;;;;;;;;;10577072;27;20290;-74
2021/03/24 21:58:53;;;;;;;9.07;3.90;;;;;;;;;;10572009;27;20805;-75
2021/03/24 22:03:57;;;;;;;8.27;3.87;;;;;;;;;;10587479;27;20556;-73
2021/03/24 22:09:00;;;;;;;9.93;4.13;;;;;;;;;;10574387;27;20228;-73
2021/03/24 22:14:13;;;;;;;9.67;4.00;;;;;;;;;;10565579;27;20214;-73
2021/03/24 22:19:15;;;;;;;8.43;3.80;;;;;;;;;;10573743;27;20190;-73
2021/03/24 22:24:18;;;;;;;8.87;4.07;;;;;;;;;;10572853;27;20206;-74
2021/03/24 22:29:25;;;;;;;9.80;3.90;;;;;;;;;;10542206;27;20202;-74
2021/03/24 22:34:28;;;;;;;10.87;4.13;;;;;;;;;;10575589;27;20264;-73
2021/03/24 22:39:34;;;;;;;10.87;3.63;;;;;;;;;;10577117;27;20202;-73
2021/03/24 22:44:37;;;;;;;10.37;4.00;;;;;;;;;;10576370;27;20551;-73
2021/03/24 22:49:40;;;;;;;8.23;3.23;;;;;;;;;;10556297;27;20214;-74
2021/03/24 22:54:43;;;;;;;7.53;3.37;;;;;;;;;;10575224;27;20199;-74
2021/03/24 22:59:45;;;;;;;9.17;3.20;;;;;;;;;;10569910;27;20248;-75
2021/03/24 23:04:47;;;;;;;8.17;3.00;;;;;;;;;;10571468;27;20686;-75
2021/03/24 23:09:52;;;;;;;9.67;3.37;;;;;;;;;;10577008;27;20190;-74
2021/03/24 23:14:56;;;;;;;9.73;3.43;;;;;;;;;;10564826;27;20571;-73
2021/03/24 23:19:59;;;;;;;9.20;3.20;;;;;;;;;;10572654;27;20195;-73
2021/03/24 23:25:04;;;;;;;6.73;2.73;;;;;;;;;;10564495;28;20309;-71
2021/03/24 23:30:07;;;;;;;7.53;3.10;;;;;;;;;;10576382;28;20720;-73
2021/03/24 23:35:11;;;;;;;5.43;2.53;;;;;;;;;;10564539;28;20212;-74
2021/03/24 23:40:15;;;;;;;7.70;2.67;;;;;;;;;;10573553;28;20232;-73
2021/03/24 23:45:18;;;;;;;5.90;2.60;;;;;;;;;;10578283;28;20211;-72
2021/03/24 23:50:22;;;;;;;6.67;2.40;;;;;;;;;;10569274;28;20696;-72
2021/03/24 23:55:26;;;;;;;7.33;2.47;;;;;;;;;;10570549;28;20639;-73
